^^
Grace C. Lehan Memorial Weather Station Historical Data
Daily Summary for March 11, 2022 Units:  Both    English   Metric
Daily Weekly Monthly Yearly
  High: Low: Average:
Temperature: 69.7 °F /  20.9 °C 52.4 °F /  11.3 °C 61.5 °F /  16.4 °C
Dew Point: 68.7 °F /  20.4 °C 50.2 °F /  10.1 °C 59.5 °F /  15.3 °C
Humidity: 97% 83.1% 93%
Wind Speed: 7mph /  11.3km/h - 0.7mph /  1.1km/h
Wind Gust: 15mph /  24.1km/h - -
Wind- - South
Pressure: 30.17 in /  1021.6 hPa 29.59 in /  1001.9 hPa -
Precipitation: 1.38 in /  35.05 mm    
 
 
Tabular Data for March 11, 2022
Time Temperature Dew Point Pressure Wind Wind Speed Wind Gust Humidity Rainfall Rate (Hourly) solar
00:04 54.8 °F /  12.7 °C 51.6 °F /  10.9 °C 30.17in /  1021.6hPa Calm     89% 0.00in /  0mm 0 W/m2
00:09 54.6 °F /  12.6 °C 51.8 °F /  11 °C 30.17in /  1021.6hPa Calm     90% 0.00in /  0mm 0 W/m2
00:14 54.5 °F /  12.5 °C 51.3 °F /  10.7 °C 30.17in /  1021.6hPa Calm     89% 0.00in /  0mm 0 W/m2
00:19 54.3 °F /  12.4 °C 51.1 °F /  10.6 °C 30.17in /  1021.6hPa Calm     89% 0.00in /  0mm 0 W/m2
00:24 54.2 °F /  12.3 °C 51 °F /  10.6 °C 30.17in /  1021.6hPa Calm     89% 0.00in /  0mm 0 W/m2
00:29 54 °F /  12.2 °C 50.9 °F /  10.5 °C 30.16in /  1021.2hPa Calm     89.2% 0.00in /  0mm 0 W/m2
00:34 54 °F /  12.2 °C 51.1 °F /  10.6 °C 30.16in /  1021.2hPa Calm     90% 0.00in /  0mm 0 W/m2
00:39 54 °F /  12.2 °C 51.4 °F /  10.8 °C 30.16in /  1021.2hPa Calm     90.6% 0.00in /  0mm 0 W/m2
00:44 54.1 °F /  12.3 °C 51.5 °F /  10.8 °C 30.16in /  1021.2hPa Calm     91% 0.00in /  0mm 0 W/m2
00:49 54.1 °F /  12.3 °C 51.5 °F /  10.8 °C 30.16in /  1021.2hPa Calm     91% 0.00in /  0mm 0 W/m2
00:54 54.1 °F /  12.3 °C 51.5 °F /  10.8 °C 30.16in /  1021.2hPa Calm     91% 0.00in /  0mm 0 W/m2
00:59 54 °F /  12.2 °C 51.4 °F /  10.8 °C 30.16in /  1021.2hPa Calm     91% 0.00in /  0mm 0 W/m2
01:04 54 °F /  12.2 °C 51.4 °F /  10.8 °C 30.15in /  1020.9hPa Calm     91% 0.00in /  0mm 0 W/m2
01:09 54 °F /  12.2 °C 51.5 °F /  10.8 °C 30.16in /  1021.2hPa Calm     91.3% 0.00in /  0mm 0 W/m2
01:14 54 °F /  12.2 °C 51.5 °F /  10.8 °C 30.16in /  1021.2hPa Calm     91.1% 0.00in /  0mm 0 W/m2
01:19 54 °F /  12.2 °C 51.6 °F /  10.9 °C 30.16in /  1021.2hPa Calm     91.6% 0.00in /  0mm 0 W/m2
01:24 54 °F /  12.2 °C 51.7 °F /  10.9 °C 30.15in /  1020.9hPa Calm     92% 0.00in /  0mm 0 W/m2
01:29 53.9 °F /  12.2 °C 51.5 °F /  10.8 °C 30.15in /  1020.9hPa Calm     91.5% 0.00in /  0mm 0 W/m2
01:34 53.8 °F /  12.1 °C 51.3 °F /  10.7 °C 30.15in /  1020.9hPa Calm     91% 0.00in /  0mm 0 W/m2
01:39 53.7 °F /  12.1 °C 51.1 °F /  10.6 °C 30.15in /  1020.9hPa Calm     91% 0.00in /  0mm 0 W/m2
01:44 53.6 °F /  12 °C 51 °F /  10.6 °C 30.16in /  1021.2hPa Calm     91% 0.00in /  0mm 0 W/m2
01:49 53.4 °F /  11.9 °C 51 °F /  10.6 °C 30.16in /  1021.2hPa Calm     91.5% 0.00in /  0mm 0 W/m2
01:54 53.3 °F /  11.8 °C 51 °F /  10.6 °C 30.15in /  1020.9hPa Calm     92% 0.00in /  0mm 0 W/m2
01:59 53.3 °F /  11.8 °C 51.1 °F /  10.6 °C 30.15in /  1020.9hPa Calm     92% 0.00in /  0mm 0 W/m2
02:04 53.3 °F /  11.8 °C 51.1 °F /  10.6 °C 30.15in /  1020.9hPa Calm     92% 0.00in /  0mm 0 W/m2
02:09 53.2 °F /  11.8 °C 50.9 °F /  10.5 °C 30.15in /  1020.9hPa Calm     92% 0.00in /  0mm 0 W/m2
02:14 52.9 °F /  11.6 °C 50.7 °F /  10.4 °C 30.15in /  1020.9hPa Calm     92% 0.00in /  0mm 0 W/m2
02:19 52.7 °F /  11.5 °C 50.4 °F /  10.2 °C 30.15in /  1020.9hPa Calm     92% 0.00in /  0mm 0 W/m2
02:24 52.5 °F /  11.4 °C 50.2 °F /  10.1 °C 30.14in /  1020.5hPa Calm     92% 0.00in /  0mm 0 W/m2
02:29 52.4 °F /  11.3 °C 50.3 °F /  10.2 °C 30.14in /  1020.5hPa Calm     92.5% 0.00in /  0mm 0 W/m2
02:34 52.5 °F /  11.4 °C 50.6 °F /  10.3 °C 30.14in /  1020.5hPa Calm     93% 0.00in /  0mm 0 W/m2
02:39 52.7 °F /  11.5 °C 50.7 °F /  10.4 °C 30.14in /  1020.5hPa Calm     93% 0.00in /  0mm 0 W/m2
02:44 52.9 °F /  11.6 °C 51 °F /  10.6 °C 30.13in /  1020.2hPa Calm     93.3% 0.00in /  0mm 0 W/m2
02:49 52.9 °F /  11.6 °C 50.9 °F /  10.5 °C 30.13in /  1020.2hPa Calm     93% 0.00in /  0mm 0 W/m2
02:54 52.9 °F /  11.6 °C 51 °F /  10.6 °C 30.13in /  1020.2hPa Calm     93.2% 0.00in /  0mm 0 W/m2
02:59 52.9 °F /  11.6 °C 51.1 °F /  10.6 °C 30.12in /  1019.9hPa Calm     93.5% 0.00in /  0mm 0 W/m2
03:04 52.9 °F /  11.6 °C 51 °F /  10.6 °C 30.12in /  1019.9hPa Calm     93.2% 0.00in /  0mm 0 W/m2
03:09 52.9 °F /  11.6 °C 51.2 °F /  10.7 °C 30.12in /  1019.9hPa Calm     94% 0.00in /  0mm 0 W/m2
03:14 52.9 °F /  11.6 °C 51.2 °F /  10.7 °C 30.13in /  1020.2hPa Calm     94% 0.00in /  0mm 0 W/m2
03:19 53 °F /  11.7 °C 51.3 °F /  10.7 °C 30.13in /  1020.2hPa Calm     94% 0.00in /  0mm 0 W/m2
03:24 53 °F /  11.7 °C 51.3 °F /  10.7 °C 30.13in /  1020.2hPa Calm     94% 0.00in /  0mm 0 W/m2
03:29 53.1 °F /  11.7 °C 51.4 °F /  10.8 °C 30.12in /  1019.9hPa Calm     94% 0.00in /  0mm 0 W/m2
03:34 53.2 °F /  11.8 °C 51.5 °F /  10.8 °C 30.12in /  1019.9hPa Calm     94% 0.00in /  0mm 0 W/m2
03:39 53.3 °F /  11.8 °C 51.7 °F /  10.9 °C 30.12in /  1019.9hPa Calm     94% 0.00in /  0mm 0 W/m2
03:44 53.5 °F /  11.9 °C 51.8 °F /  11 °C 30.12in /  1019.9hPa Calm     94% 0.00in /  0mm 0 W/m2
03:49 53.7 °F /  12.1 °C 52 °F /  11.1 °C 30.11in /  1019.5hPa Calm     94% 0.00in /  0mm 0 W/m2
03:54 53.7 °F /  12.1 °C 52 °F /  11.1 °C 30.11in /  1019.5hPa Calm     94% 0.00in /  0mm 0 W/m2
03:59 53.8 °F /  12.1 °C 52.1 °F /  11.2 °C 30.11in /  1019.5hPa Calm     94% 0.00in /  0mm 0 W/m2
04:00 53.9 °F /  12.2 °C 52.2 °F /  11.2 °C 30.11in /  1019.5hPa Calm     94% 0.00in /  0mm 0 W/m2
04:09 54 °F /  12.2 °C 52.3 °F /  11.3 °C 30.11in /  1019.5hPa Calm     94% 0.00in /  0mm 0 W/m2
04:14 54 °F /  12.2 °C 52.3 °F /  11.3 °C 30.11in /  1019.5hPa Calm     94% 0.00in /  0mm 0 W/m2
04:19 53.9 °F /  12.2 °C 52.2 °F /  11.2 °C 30.11in /  1019.5hPa Calm     94% 0.00in /  0mm 0 W/m2
04:24 53.9 °F /  12.2 °C 52.2 °F /  11.2 °C 30.11in /  1019.5hPa Calm     94% 0.00in /  0mm 0 W/m2
04:29 53.9 °F /  12.2 °C 52.2 °F /  11.2 °C 30.11in /  1019.5hPa Calm     94% 0.00in /  0mm 0 W/m2
04:34 53.8 °F /  12.1 °C 52.2 °F /  11.2 °C 30.11in /  1019.5hPa Calm     94% 0.00in /  0mm 0 W/m2
04:39 53.8 °F /  12.1 °C 52.1 °F /  11.2 °C 30.11in /  1019.5hPa Calm     94% 0.00in /  0mm 0 W/m2
04:44 53.7 °F /  12.1 °C 52 °F /  11.1 °C 30.11in /  1019.5hPa Calm     94% 0.00in /  0mm 0 W/m2
04:49 53.7 °F /  12.1 °C 52 °F /  11.1 °C 30.11in /  1019.5hPa Calm     94% 0.00in /  0mm 0 W/m2
04:54 53.7 °F /  12.1 °C 52 °F /  11.1 °C 30.10in /  1019.2hPa Calm     94% 0.00in /  0mm 0 W/m2
04:59 53.7 °F /  12.1 °C 52 °F /  11.1 °C 30.10in /  1019.2hPa Calm     94% 0.00in /  0mm 0 W/m2
05:04 53.7 °F /  12.1 °C 52 °F /  11.1 °C 30.10in /  1019.2hPa Calm     94% 0.00in /  0mm 0 W/m2
05:09 53.7 °F /  12.1 °C 52.2 °F /  11.2 °C 30.10in /  1019.2hPa Calm     94.5% 0.00in /  0mm 0 W/m2
05:14 53.8 °F /  12.1 °C 52.4 °F /  11.3 °C 30.10in /  1019.2hPa Calm     95% 0.00in /  0mm 0 W/m2
05:19 53.9 °F /  12.2 °C 52.5 °F /  11.4 °C 30.10in /  1019.2hPa Calm     95% 0.00in /  0mm 0 W/m2
05:24 53.9 °F /  12.2 °C 52.5 °F /  11.4 °C 30.09in /  1018.8hPa Calm     95% 0.00in /  0mm 0 W/m2
05:29 54 °F /  12.2 °C 52.6 °F /  11.4 °C 30.09in /  1018.8hPa Calm     95% 0.00in /  0mm 0 W/m2
05:34 54.2 °F /  12.3 °C 52.8 °F /  11.6 °C 30.09in /  1018.8hPa Calm     95% 0.00in /  0mm 0 W/m2
05:38 54.3 °F /  12.4 °C 52.9 °F /  11.6 °C 30.09in /  1018.8hPa Calm     95% 0.00in /  0mm 0 W/m2
06:30 52.8 °F /  11.6 °C 51.1 °F /  10.6 °C 30.09in /  1018.8hPa Calm     94% 0.00in /  0mm 0 W/m2
07:00 52.8 °F /  11.6 °C 51.1 °F /  10.6 °C 30.08in /  1018.5hPa Calm     94% 0.00in /  0mm 7 W/m2
07:30 53.3 °F /  11.8 °C 51.9 °F /  11.1 °C 30.09in /  1018.8hPa Calm     95% 0.00in /  0mm 30 W/m2
08:04 54.5 °F /  12.5 °C 53.1 °F /  11.7 °C 30.09in /  1018.8hPa Calm     95% 0.00in /  0mm 113 W/m2
08:09 54.8 °F /  12.7 °C 53.4 °F /  11.9 °C 30.09in /  1018.8hPa Calm     95% 0.00in /  0mm 105 W/m2
08:14 55.2 °F /  12.9 °C 53.9 °F /  12.2 °C 30.09in /  1018.8hPa Calm     95.4% 0.00in /  0mm 111 W/m2
08:19 55.6 °F /  13.1 °C 54.3 °F /  12.4 °C 30.09in /  1018.8hPa Calm     95.4% 0.00in /  0mm 102 W/m2
08:24 56 °F /  13.3 °C 54.8 °F /  12.7 °C 30.09in /  1018.8hPa Calm     95.8% 0.00in /  0mm 204 W/m2
08:29 56.5 °F /  13.6 °C 55.2 °F /  12.9 °C 30.08in /  1018.5hPa Calm     95.4% 0.00in /  0mm 199 W/m2
08:34 57.1 °F /  13.9 °C 56 °F /  13.3 °C 30.08in /  1018.5hPa Calm     96% 0.00in /  0mm 146 W/m2
08:39 57.6 °F /  14.2 °C 56.4 °F /  13.6 °C 30.08in /  1018.5hPa Calm     95.8% 0.00in /  0mm 141 W/m2
08:44 58.1 °F /  14.5 °C 56.7 °F /  13.7 °C 30.08in /  1018.5hPa Calm     95.2% 0.00in /  0mm 146 W/m2
08:49 58.5 °F /  14.7 °C 57.1 °F /  13.9 °C 30.08in /  1018.5hPa Calm     95% 0.00in /  0mm 171 W/m2
08:54 58.8 °F /  14.9 °C 57.4 °F /  14.1 °C 30.08in /  1018.5hPa Calm     95% 0.00in /  0mm 176 W/m2
08:59 59.2 °F /  15.1 °C 57.5 °F /  14.2 °C 30.08in /  1018.5hPa Calm     94% 0.00in /  0mm 113 W/m2
09:04 59.5 °F /  15.3 °C 57.7 °F /  14.3 °C 30.08in /  1018.5hPa Calm     93.6% 0.00in /  0mm 123 W/m2
09:09 59.8 °F /  15.4 °C 57.8 °F /  14.3 °C 30.07in /  1018.2hPa Calm     93% 0.00in /  0mm 132 W/m2
09:14 60.1 °F /  15.6 °C 57.8 °F /  14.3 °C 30.07in /  1018.2hPa Calm     92.3% 0.00in /  0mm 114 W/m2
09:19 60.3 °F /  15.7 °C 57.9 °F /  14.4 °C 30.07in /  1018.2hPa Calm     92% 0.00in /  0mm 118 W/m2
09:24 60.4 °F /  15.8 °C 57.8 °F /  14.3 °C 30.07in /  1018.2hPa Calm     91% 0.00in /  0mm 130 W/m2
09:29 60.6 °F /  15.9 °C 58 °F /  14.4 °C 30.07in /  1018.2hPa Calm     91% 0.00in /  0mm 132 W/m2
09:34 60.9 °F /  16.1 °C 58.2 °F /  14.6 °C 30.07in /  1018.2hPa Calm     91% 0.00in /  0mm 118 W/m2
09:39 61.2 °F /  16.2 °C 58.3 °F /  14.6 °C 30.07in /  1018.2hPa Calm     90.4% 0.00in /  0mm 137 W/m2
09:44 61.4 °F /  16.3 °C 58.4 °F /  14.7 °C 30.07in /  1018.2hPa Calm     90% 0.00in /  0mm 123 W/m2
09:49 61.6 °F /  16.4 °C 58.6 °F /  14.8 °C 30.07in /  1018.2hPa Calm     90% 0.00in /  0mm 111 W/m2
09:54 61.8 °F /  16.6 °C 58.9 °F /  14.9 °C 30.07in /  1018.2hPa Calm     90% 0.00in /  0mm 125 W/m2
09:59 62 °F /  16.7 °C 58.8 °F /  14.9 °C 30.07in /  1018.2hPa Calm     89.2% 0.00in /  0mm 83 W/m2
10:04 62.2 °F /  16.8 °C 58.9 °F /  14.9 °C 30.06in /  1017.8hPa Calm     88.9% 0.00in /  0mm 105 W/m2
10:09 62.3 °F /  16.8 °C 58.7 °F /  14.8 °C 30.06in /  1017.8hPa Calm     88.2% 0.00in /  0mm 125 W/m2
10:14 62.4 °F /  16.9 °C 58.8 °F /  14.9 °C 30.06in /  1017.8hPa Calm     88% 0.00in /  0mm 134 W/m2
10:19 62.5 °F /  16.9 °C 58.9 °F /  14.9 °C 30.06in /  1017.8hPa Calm     88% 0.00in /  0mm 67 W/m2
10:24 62.6 °F /  17 °C 59 °F /  15 °C 30.05in /  1017.5hPa Calm     88% 0.00in /  0mm 130 W/m2
10:29 62.7 °F /  17.1 °C 59.1 °F /  15.1 °C 30.06in /  1017.8hPa Calm     88% 0.00in /  0mm 167 W/m2
10:34 62.9 °F /  17.2 °C 59.3 °F /  15.2 °C 30.06in /  1017.8hPa Calm     88% 0.00in /  0mm 158 W/m2
10:39 63.1 °F /  17.3 °C 59.5 °F /  15.3 °C 30.05in /  1017.5hPa Calm     88% 0.00in /  0mm 193 W/m2
10:44 63.2 °F /  17.3 °C 59.3 °F /  15.2 °C 30.05in /  1017.5hPa Calm   1mph /  1.6km/h 87.1% 0.00in /  0mm 218 W/m2
10:49 63.6 °F /  17.6 °C 59.8 °F /  15.4 °C 30.05in /  1017.5hPa Calm   1mph /  1.6km/h 87.6% 0.00in /  0mm 248 W/m2
10:54 64 °F /  17.8 °C 60.4 °F /  15.8 °C 30.04in /  1017.2hPa SW 0.3mph /  0.5km/h 4mph /  6.4km/h 88% 0.00in /  0mm 244 W/m2
10:59 64.5 °F /  18.1 °C 60.8 °F /  16 °C 30.04in /  1017.2hPa SSW 0.6mph /  1km/h 7mph /  11.3km/h 88% 0.00in /  0mm 169 W/m2
11:04 64.7 °F /  18.2 °C 61 °F /  16.1 °C 30.04in /  1017.2hPa South 0.1mph /  0.2km/h 7mph /  11.3km/h 87.7% 0.00in /  0mm 84 W/m2
11:09 64.8 °F /  18.2 °C 60.9 °F /  16.1 °C 30.03in /  1016.8hPa Calm   2mph /  3.2km/h 87% 0.00in /  0mm 134 W/m2
11:14 65 °F /  18.3 °C 61.4 °F /  16.3 °C 30.03in /  1016.8hPa Calm   2mph /  3.2km/h 88% 0.00in /  0mm 171 W/m2
11:19 65.3 °F /  18.5 °C 61.5 °F /  16.4 °C 30.03in /  1016.8hPa South 0.3mph /  0.5km/h 3mph /  4.8km/h 87.6% 0.00in /  0mm 178 W/m2
11:24 65.6 °F /  18.7 °C 61.6 °F /  16.4 °C 30.02in /  1016.5hPa South 0.1mph /  0.2km/h 3mph /  4.8km/h 86.9% 0.00in /  0mm 169 W/m2
11:29 65.9 °F /  18.8 °C 61.6 °F /  16.4 °C 30.01in /  1016.1hPa SSW 0.4mph /  0.6km/h 4mph /  6.4km/h 86% 0.00in /  0mm 120 W/m2
11:34 66.2 °F /  19 °C 61.6 °F /  16.4 °C 30.01in /  1016.1hPa Calm   4mph /  6.4km/h 85.2% 0.00in /  0mm 118 W/m2
11:39 66.4 °F /  19.1 °C 61.5 °F /  16.4 °C 30.01in /  1016.1hPa SSW 0.2mph /  0.3km/h 3mph /  4.8km/h 84.3% 0.00in /  0mm 120 W/m2
11:44 66.6 °F /  19.2 °C 61.6 °F /  16.4 °C 30.01in /  1016.1hPa Calm   3mph /  4.8km/h 84% 0.00in /  0mm 100 W/m2
11:49 66.7 °F /  19.3 °C 61.7 °F /  16.5 °C 30.01in /  1016.1hPa Calm   3mph /  4.8km/h 84% 0.00in /  0mm 58 W/m2
11:54 66.8 °F /  19.3 °C 61.5 °F /  16.4 °C 30.00in /  1015.8hPa SSW 0.3mph /  0.5km/h 4mph /  6.4km/h 83.1% 0.00in /  0mm 97 W/m2
11:59 66.9 °F /  19.4 °C 61.8 °F /  16.6 °C 30.00in /  1015.8hPa South 0.9mph /  1.4km/h 4mph /  6.4km/h 83.7% 0.00in /  0mm 105 W/m2
12:04 66.8 °F /  19.3 °C 62.4 °F /  16.9 °C 30.00in /  1015.8hPa SSW 1mph /  1.6km/h 2mph /  3.2km/h 86% 0.00in /  0mm 81 W/m2
12:09 66.5 °F /  19.2 °C 62.5 °F /  16.9 °C 30.00in /  1015.8hPa Calm   2mph /  3.2km/h 86.9% 0.00in /  0mm 81 W/m2
12:14 66.2 °F /  19 °C 62.5 °F /  16.9 °C 30.00in /  1015.8hPa Calm   2mph /  3.2km/h 87.9% 0.00in /  0mm 65 W/m2
12:19 65.9 °F /  18.8 °C 62.6 °F /  17 °C 29.99in /  1015.5hPa Calm   2mph /  3.2km/h 89% 0.00in /  0mm 51 W/m2
12:24 65.7 °F /  18.7 °C 62.4 °F /  16.9 °C 29.99in /  1015.5hPa Calm   2mph /  3.2km/h 89.2% 0.00in /  0mm 51 W/m2
12:29 65.5 °F /  18.6 °C 62.4 °F /  16.9 °C 29.99in /  1015.5hPa Calm   2mph /  3.2km/h 90% 0.00in /  0mm 56 W/m2
12:34 65.3 °F /  18.5 °C 62.4 °F /  16.9 °C 29.98in /  1015.1hPa Calm   2mph /  3.2km/h 90.2% 0.01in /  0.25mm 53 W/m2
12:39 65.2 °F /  18.4 °C 62.5 °F /  16.9 °C 29.98in /  1015.1hPa Calm     91% 0.01in /  0.25mm 86 W/m2
12:44 65 °F /  18.3 °C 62.5 °F /  16.9 °C 29.98in /  1015.1hPa Calm     91.3% 0.01in /  0.25mm 107 W/m2
12:45 65 °F /  18.3 °C 62.6 °F /  17 °C 29.97in /  1014.8hPa Calm     92% 0.01in /  0.25mm 100 W/m2
13:00 65 °F /  18.3 °C 62.6 °F /  17 °C 29.96in /  1014.4hPa Calm     92% 0.01in /  0.25mm 84 W/m2
13:30 65.4 °F /  18.6 °C 63.3 °F /  17.4 °C 29.94in /  1013.8hPa Calm     93% 0.00in /  0mm 85 W/m2
14:30 65.8 °F /  18.8 °C 63.7 °F /  17.6 °C 29.91in /  1012.8hPa Calm   4mph /  6.4km/h 93% 0.02in /  0.51mm 26 W/m2
15:00 65.7 °F /  18.7 °C 63.3 °F /  17.4 °C 29.90in /  1012.4hPa Calm   1mph /  1.6km/h 92% 0.05in /  1.27mm 19 W/m2
15:30 65.3 °F /  18.5 °C 63.2 °F /  17.3 °C 29.88in /  1011.7hPa Calm     93% 0.07in /  1.78mm 12 W/m2
16:04 65.1 °F /  18.4 °C 63.3 °F /  17.4 °C 29.88in /  1011.7hPa Calm     93.9% 0.07in /  1.78mm 12 W/m2
16:09 65.1 °F /  18.4 °C 63.3 °F /  17.4 °C 29.86in /  1011.1hPa Calm     94% 0.07in /  1.78mm 0 W/m2
16:14 65.1 °F /  18.4 °C 63.3 °F /  17.4 °C 29.86in /  1011.1hPa Calm     94% 0.07in /  1.78mm 0 W/m2
16:19 65 °F /  18.3 °C 63.2 °F /  17.3 °C 29.86in /  1011.1hPa Calm     94% 0.07in /  1.78mm 0 W/m2
16:24 65 °F /  18.3 °C 63.2 °F /  17.3 °C 29.86in /  1011.1hPa Calm     94% 0.07in /  1.78mm 0 W/m2
16:29 65 °F /  18.3 °C 63.2 °F /  17.3 °C 29.85in /  1010.7hPa Calm     94% 0.07in /  1.78mm 0 W/m2
16:34 65 °F /  18.3 °C 63.2 °F /  17.3 °C 29.85in /  1010.7hPa Calm     94% 0.07in /  1.78mm 0 W/m2
16:39 65 °F /  18.3 °C 63.4 °F /  17.4 °C 29.84in /  1010.4hPa Calm     94.7% 0.03in /  0.76mm 0 W/m2
16:44 64.9 °F /  18.3 °C 63.4 °F /  17.4 °C 29.83in /  1010hPa Calm     95% 0.03in /  0.76mm 0 W/m2
16:49 64.9 °F /  18.3 °C 63.4 °F /  17.4 °C 29.83in /  1010hPa Calm     95% 0.03in /  0.76mm 0 W/m2
16:54 64.9 °F /  18.3 °C 63.4 °F /  17.4 °C 29.83in /  1010hPa Calm     95% 0.03in /  0.76mm 0 W/m2
16:59 64.9 °F /  18.3 °C 63.4 °F /  17.4 °C 29.83in /  1010hPa Calm     95% 0.03in /  0.76mm 0 W/m2
17:04 64.9 °F /  18.3 °C 63.4 °F /  17.4 °C 29.82in /  1009.7hPa SSE 0.3mph /  0.5km/h 4mph /  6.4km/h 95% 0.03in /  0.76mm 0 W/m2
17:09 64.9 °F /  18.3 °C 63.4 °F /  17.4 °C 29.82in /  1009.7hPa SSE 0.1mph /  0.2km/h 4mph /  6.4km/h 95% 0.01in /  0.25mm 0 W/m2
17:14 65 °F /  18.3 °C 63.5 °F /  17.5 °C 29.81in /  1009.4hPa SE 0.2mph /  0.3km/h 5mph /  8km/h 95% 0.02in /  0.51mm 0 W/m2
17:19 65 °F /  18.3 °C 63.5 °F /  17.5 °C 29.81in /  1009.4hPa Calm   5mph /  8km/h 95% 0.03in /  0.76mm 0 W/m2
17:24 65 °F /  18.3 °C 63.5 °F /  17.5 °C 29.81in /  1009.4hPa SE 0.3mph /  0.5km/h 5mph /  8km/h 95% 0.03in /  0.76mm 0 W/m2
17:29 65 °F /  18.3 °C 63.5 °F /  17.5 °C 29.81in /  1009.4hPa SE 0.6mph /  1km/h 5mph /  8km/h 95% 0.05in /  1.27mm 0 W/m2
17:34 65 °F /  18.3 °C 63.5 °F /  17.5 °C 29.80in /  1009hPa ESE 0.8mph /  1.3km/h 7mph /  11.3km/h 95% 0.07in /  1.78mm 0 W/m2
17:39 65 °F /  18.3 °C 63.5 °F /  17.5 °C 29.80in /  1009hPa ESE 0.6mph /  1km/h 7mph /  11.3km/h 95% 0.07in /  1.78mm 0 W/m2
17:44 65 °F /  18.3 °C 63.5 °F /  17.5 °C 29.80in /  1009hPa SE 0.2mph /  0.3km/h 7mph /  11.3km/h 95% 0.08in /  2.03mm 0 W/m2
17:49 65 °F /  18.3 °C 63.5 °F /  17.5 °C 29.79in /  1008.7hPa SE 0.5mph /  0.8km/h 7mph /  11.3km/h 95% 0.10in /  2.54mm 0 W/m2
17:54 65 °F /  18.3 °C 63.5 °F /  17.5 °C 29.79in /  1008.7hPa Calm   7mph /  11.3km/h 95% 0.12in /  3.05mm 0 W/m2
17:59 65 °F /  18.3 °C 63.5 °F /  17.5 °C 29.79in /  1008.7hPa Calm   7mph /  11.3km/h 95% 0.13in /  3.3mm 0 W/m2
18:04 65 °F /  18.3 °C 63.5 °F /  17.5 °C 29.78in /  1008.4hPa SE 0.5mph /  0.8km/h 7mph /  11.3km/h 95% 0.15in /  3.81mm 0 W/m2
18:09 65 °F /  18.3 °C 63.6 °F /  17.6 °C 29.78in /  1008.4hPa Calm   4mph /  6.4km/h 95.2% 0.17in /  4.32mm 0 W/m2
18:14 65 °F /  18.3 °C 63.8 °F /  17.7 °C 29.77in /  1008hPa Calm   4mph /  6.4km/h 96% 0.24in /  6.1mm 0 W/m2
18:19 65 °F /  18.3 °C 63.8 °F /  17.7 °C 29.77in /  1008hPa Calm   4mph /  6.4km/h 96% 0.27in /  6.86mm 0 W/m2
18:24 65 °F /  18.3 °C 63.9 °F /  17.7 °C 29.77in /  1008hPa Calm   4mph /  6.4km/h 96% 0.32in /  8.13mm 0 W/m2
18:29 65 °F /  18.3 °C 63.9 °F /  17.7 °C 29.77in /  1008hPa Calm   4mph /  6.4km/h 96% 0.36in /  9.14mm 0 W/m2
18:34 65.1 °F /  18.4 °C 63.9 °F /  17.7 °C 29.76in /  1007.7hPa SE 0.1mph /  0.2km/h 4mph /  6.4km/h 96% 0.37in /  9.4mm 0 W/m2
18:39 65.1 °F /  18.4 °C 63.9 °F /  17.7 °C 29.76in /  1007.7hPa Calm   3mph /  4.8km/h 96% 0.35in /  8.89mm 0 W/m2
18:44 65 °F /  18.3 °C 63.8 °F /  17.7 °C 29.75in /  1007.3hPa Calm   3mph /  4.8km/h 96% 0.36in /  9.14mm 0 W/m2
18:49 65 °F /  18.3 °C 63.9 °F /  17.7 °C 29.74in /  1007hPa Calm   3mph /  4.8km/h 96% 0.36in /  9.14mm 0 W/m2
18:54 65.1 °F /  18.4 °C 63.9 °F /  17.7 °C 29.75in /  1007.3hPa Calm   3mph /  4.8km/h 96% 0.43in /  10.92mm 0 W/m2
18:59 65.1 °F /  18.4 °C 63.9 °F /  17.7 °C 29.74in /  1007hPa Calm   3mph /  4.8km/h 96% 0.46in /  11.68mm 0 W/m2
19:04 65.1 °F /  18.4 °C 64 °F /  17.8 °C 29.73in /  1006.7hPa Calm   3mph /  4.8km/h 96% 0.46in /  11.68mm 0 W/m2
19:09 65.3 °F /  18.5 °C 64.1 °F /  17.8 °C 29.73in /  1006.7hPa Calm     96% 0.43in /  10.92mm 0 W/m2
19:14 65.4 °F /  18.6 °C 64.3 °F /  17.9 °C 29.73in /  1006.7hPa SE 0.1mph /  0.2km/h 2mph /  3.2km/h 96% 0.64in /  16.26mm 0 W/m2
19:19 65.6 °F /  18.7 °C 64.4 °F /  18 °C 29.71in /  1006hPa SE 0.3mph /  0.5km/h 3mph /  4.8km/h 96% 0.67in /  17.02mm 0 W/m2
19:24 65.8 °F /  18.8 °C 64.6 °F /  18.1 °C 29.71in /  1006hPa Calm   3mph /  4.8km/h 96% 0.71in /  18.03mm 0 W/m2
19:29 66 °F /  18.9 °C 64.8 °F /  18.2 °C 29.70in /  1005.6hPa SSE 0.4mph /  0.6km/h 5mph /  8km/h 96% 0.72in /  18.29mm 0 W/m2
19:34 66.2 °F /  19 °C 65 °F /  18.3 °C 29.69in /  1005.3hPa SSE 0.1mph /  0.2km/h 5mph /  8km/h 96% 0.72in /  18.29mm 0 W/m2
19:39 66.4 °F /  19.1 °C 65.2 °F /  18.4 °C 29.69in /  1005.3hPa SSE 1.8mph /  2.9km/h 10mph /  16.1km/h 96% 0.56in /  14.22mm 0 W/m2
19:44 66.6 °F /  19.2 °C 65.5 °F /  18.6 °C 29.69in /  1005.3hPa Calm   10mph /  16.1km/h 96% 0.57in /  14.48mm 0 W/m2
19:49 66.8 °F /  19.3 °C 65.6 °F /  18.7 °C 29.69in /  1005.3hPa SSE 0.1mph /  0.2km/h 10mph /  16.1km/h 96% 0.57in /  14.48mm 0 W/m2
19:54 67.2 °F /  19.6 °C 66.2 °F /  19 °C 29.69in /  1005.3hPa South 1.5mph /  2.4km/h 10mph /  16.1km/h 96.5% 0.62in /  15.75mm 0 W/m2
19:59 67.7 °F /  19.8 °C 66.7 °F /  19.3 °C 29.69in /  1005.3hPa South 3.1mph /  5km/h 10mph /  16.1km/h 96.5% 0.73in /  18.54mm 0 W/m2
20:04 68.3 °F /  20.2 °C 67.4 °F /  19.7 °C 29.67in /  1004.6hPa SSW 1.7mph /  2.7km/h 4mph /  6.4km/h 97% 0.75in /  19.05mm 0 W/m2
20:09 68.3 °F /  20.2 °C 67.5 °F /  19.7 °C 29.68in /  1005hPa South 2.2mph /  3.5km/h 9mph /  14.5km/h 97% 0.77in /  19.56mm 0 W/m2
20:14 68.5 °F /  20.3 °C 67.6 °F /  19.8 °C 29.67in /  1004.6hPa South 3.7mph /  6km/h 10mph /  16.1km/h 97% 0.77in /  19.56mm 0 W/m2
20:19 68.6 °F /  20.3 °C 67.7 °F /  19.8 °C 29.67in /  1004.6hPa SW 1.2mph /  1.9km/h 10mph /  16.1km/h 97% 0.78in /  19.81mm 0 W/m2
20:24 68.7 °F /  20.4 °C 67.8 °F /  19.9 °C 29.67in /  1004.6hPa South 2mph /  3.2km/h 10mph /  16.1km/h 97% 0.78in /  19.81mm 0 W/m2
20:29 68.8 °F /  20.4 °C 67.9 °F /  19.9 °C 29.67in /  1004.6hPa South 5.2mph /  8.4km/h 15mph /  24.1km/h 96.9% 0.78in /  19.81mm 0 W/m2
20:34 69 °F /  20.6 °C 68.1 °F /  20.1 °C 29.66in /  1004.3hPa South 3.8mph /  6.1km/h 15mph /  24.1km/h 97% 0.78in /  19.81mm 0 W/m2
20:39 69.1 °F /  20.6 °C 68.2 °F /  20.1 °C 29.66in /  1004.3hPa South 2.2mph /  3.5km/h 11mph /  17.7km/h 97% 0.32in /  8.13mm 0 W/m2
20:44 69 °F /  20.6 °C 68.1 °F /  20.1 °C 29.66in /  1004.3hPa South 2.6mph /  4.2km/h 11mph /  17.7km/h 97% 0.32in /  8.13mm 0 W/m2
20:49 69.1 °F /  20.6 °C 68.3 °F /  20.2 °C 29.66in /  1004.3hPa South 3.4mph /  5.5km/h 11mph /  17.7km/h 97% 0.32in /  8.13mm 0 W/m2
20:54 69.2 °F /  20.7 °C 68.3 °F /  20.2 °C 29.66in /  1004.3hPa South 1.8mph /  2.9km/h 11mph /  17.7km/h 97% 0.33in /  8.38mm 0 W/m2
20:59 69.3 °F /  20.7 °C 68.4 °F /  20.2 °C 29.66in /  1004.3hPa South 3.1mph /  5km/h 13mph /  20.9km/h 97% 0.33in /  8.38mm 0 W/m2
21:04 69.4 °F /  20.8 °C 68.2 °F /  20.1 °C 29.66in /  1004.3hPa South 3mph /  4.8km/h 13mph /  20.9km/h 96.1% 0.33in /  8.38mm 0 W/m2
21:09 69.4 °F /  20.8 °C 68.2 °F /  20.1 °C 29.66in /  1004.3hPa South 3.8mph /  6.1km/h 10mph /  16.1km/h 96% 0.02in /  0.51mm 0 W/m2
21:14 69.4 °F /  20.8 °C 68.2 °F /  20.1 °C 29.66in /  1004.3hPa South 2.4mph /  3.9km/h 10mph /  16.1km/h 96% 0.02in /  0.51mm 0 W/m2
21:19 69.4 °F /  20.8 °C 68.2 °F /  20.1 °C 29.65in /  1003.9hPa SSW 3.9mph /  6.3km/h 12mph /  19.3km/h 96% 0.02in /  0.51mm 0 W/m2
21:24 69.4 °F /  20.8 °C 68.2 °F /  20.1 °C 29.65in /  1003.9hPa SSW 4.1mph /  6.6km/h 12mph /  19.3km/h 96% 0.02in /  0.51mm 0 W/m2
21:29 69.5 °F /  20.8 °C 68.3 °F /  20.2 °C 29.65in /  1003.9hPa SSW 2.6mph /  4.2km/h 12mph /  19.3km/h 96% 0.02in /  0.51mm 0 W/m2
21:34 69.5 °F /  20.8 °C 68.3 °F /  20.2 °C 29.65in /  1003.9hPa SSW 4.5mph /  7.2km/h 12mph /  19.3km/h 96% 0.02in /  0.51mm 0 W/m2
21:39 69.6 °F /  20.9 °C 68.6 °F /  20.3 °C 29.65in /  1003.9hPa SSW 4mph /  6.4km/h 12mph /  19.3km/h 96.6% 0.02in /  0.51mm 0 W/m2
21:44 69.6 °F /  20.9 °C 68.7 °F /  20.4 °C 29.65in /  1003.9hPa South 4.4mph /  7.1km/h 12mph /  19.3km/h 97% 0.03in /  0.76mm 0 W/m2
21:49 69.6 °F /  20.9 °C 68.7 °F /  20.4 °C 29.64in /  1003.6hPa South 4.7mph /  7.6km/h 12mph /  19.3km/h 96.9% 0.03in /  0.76mm 0 W/m2
21:54 69.7 °F /  20.9 °C 68.6 °F /  20.3 °C 29.64in /  1003.6hPa South 3.6mph /  5.8km/h 12mph /  19.3km/h 96.2% 0.03in /  0.76mm 0 W/m2
21:59 69.7 °F /  20.9 °C 68.5 °F /  20.3 °C 29.63in /  1003.3hPa South 3.8mph /  6.1km/h 12mph /  19.3km/h 96% 0.04in /  1.02mm 0 W/m2
22:04 69.7 °F /  20.9 °C 68.5 °F /  20.3 °C 29.63in /  1003.3hPa South 4.8mph /  7.7km/h 12mph /  19.3km/h 96% 0.04in /  1.02mm 0 W/m2
22:09 69.7 °F /  20.9 °C 68.5 °F /  20.3 °C 29.63in /  1003.3hPa South 5.1mph /  8.2km/h 13mph /  20.9km/h 96% 0.02in /  0.51mm 0 W/m2
22:14 69.7 °F /  20.9 °C 68.5 °F /  20.3 °C 29.62in /  1002.9hPa SSW 4.3mph /  6.9km/h 13mph /  20.9km/h 96% 0.03in /  0.76mm 0 W/m2
22:19 69.6 °F /  20.9 °C 68.4 °F /  20.2 °C 29.62in /  1002.9hPa South 4.5mph /  7.2km/h 13mph /  20.9km/h 96% 0.05in /  1.27mm 0 W/m2
22:24 69.5 °F /  20.8 °C 68.3 °F /  20.2 °C 29.62in /  1002.9hPa South 1.9mph /  3.1km/h 13mph /  20.9km/h 96% 0.08in /  2.03mm 0 W/m2
22:29 69.5 °F /  20.8 °C 68.3 °F /  20.2 °C 29.62in /  1002.9hPa South 4.1mph /  6.6km/h 13mph /  20.9km/h 96% 0.08in /  2.03mm 0 W/m2
22:34 69.5 °F /  20.8 °C 68.3 °F /  20.2 °C 29.62in /  1002.9hPa South 3.9mph /  6.3km/h 13mph /  20.9km/h 96% 0.08in /  2.03mm 0 W/m2
22:39 69.5 °F /  20.8 °C 68.3 °F /  20.2 °C 29.61in /  1002.6hPa South 5mph /  8km/h 12mph /  19.3km/h 96% 0.08in /  2.03mm 0 W/m2
22:44 69.5 °F /  20.8 °C 68.3 °F /  20.2 °C 29.61in /  1002.6hPa SSW 3.3mph /  5.3km/h 12mph /  19.3km/h 96% 0.08in /  2.03mm 0 W/m2
22:49 69.4 °F /  20.8 °C 68.2 °F /  20.1 °C 29.61in /  1002.6hPa South 3.8mph /  6.1km/h 14mph /  22.5km/h 96% 0.08in /  2.03mm 0 W/m2
22:54 69.4 °F /  20.8 °C 68.2 °F /  20.1 °C 29.60in /  1002.3hPa SSW 4.4mph /  7.1km/h 14mph /  22.5km/h 96% 0.08in /  2.03mm 0 W/m2
22:59 69.4 °F /  20.8 °C 68.2 °F /  20.1 °C 29.60in /  1002.3hPa SSW 3.5mph /  5.6km/h 14mph /  22.5km/h 96% 0.08in /  2.03mm 0 W/m2
23:00 69.3 °F /  20.7 °C 68.1 °F /  20.1 °C 29.60in /  1002.3hPa SSE 7mph /  11.3km/h 14mph /  22.5km/h 96% 0.08in /  2.03mm 0 W/m2
23:09 69.3 °F /  20.7 °C 68.1 °F /  20.1 °C 29.60in /  1002.3hPa South 2.8mph /  4.5km/h 9mph /  14.5km/h 96% 0.08in /  2.03mm 0 W/m2
23:13 69.3 °F /  20.7 °C 68.1 °F /  20.1 °C 29.59in /  1001.9hPa SSW 2.3mph /  3.7km/h 9mph /  14.5km/h 96% 0.08in /  2.03mm 0 W/m2
Hartford County Weather
Compliments of Weather Underground - 2 mb